createdAt,value
2023-04-12T00:00:10.215Z,2.80
2023-04-12T00:05:15.009Z,1.45
2023-04-12T00:10:20.947Z,1.40
2023-04-12T00:15:24.843Z,1.55
2023-04-12T00:20:28.968Z,1.05
2023-04-12T00:25:34.270Z,3.42
2023-04-12T00:30:38.258Z,2.08
2023-04-12T00:35:44.005Z,1.63
2023-04-12T00:46:19.952Z,1.83
2023-04-12T00:51:25.657Z,1.00
2023-04-12T00:56:32.414Z,1.17
2023-04-12T01:01:41.551Z,1.33
2023-04-12T01:07:02.367Z,2.05
2023-04-12T01:12:17.846Z,1.05
2023-04-12T01:17:27.775Z,0.98
2023-04-12T01:22:54.785Z,1.30
2023-04-12T01:28:03.918Z,1.80
2023-04-12T01:33:11.604Z,2.72
2023-04-12T01:38:17.736Z,1.48
2023-04-12T01:43:23.080Z,1.65
2023-04-12T01:48:27.288Z,1.85
2023-04-12T01:53:40.966Z,1.13
2023-04-12T01:58:49.880Z,1.63
2023-04-12T02:03:54.984Z,2.78
2023-04-12T02:09:05.857Z,2.05
2023-04-12T02:14:12.025Z,2.33
2023-04-12T02:19:17.589Z,2.25
2023-04-12T02:24:21.967Z,2.58
2023-04-12T02:29:27.229Z,3.20
2023-04-12T02:34:34.314Z,1.98
2023-04-12T02:39:48.040Z,2.88
2023-04-12T02:44:54.808Z,2.50
2023-04-12T02:49:59.211Z,2.28
2023-04-12T02:55:03.882Z,2.80
2023-04-12T03:00:12.773Z,3.38
2023-04-12T03:05:20.708Z,3.50
2023-04-12T03:10:25.232Z,2.75
2023-04-12T03:15:40.450Z,3.13
2023-04-12T03:20:47.470Z,3.83
2023-04-12T03:25:52.595Z,2.75
2023-04-12T03:31:21.617Z,2.72
2023-04-12T03:36:27.240Z,2.78
2023-04-12T03:41:42.013Z,1.83
2023-04-12T03:46:47.383Z,2.97
2023-04-12T03:51:53.082Z,3.33
2023-04-12T03:56:57.691Z,3.90
2023-04-12T04:02:14.178Z,3.15
2023-04-12T04:07:23.902Z,3.28
2023-04-12T04:12:30.115Z,3.28
2023-04-12T04:17:36.437Z,4.10
2023-04-12T04:22:42.256Z,2.33
2023-04-12T04:27:47.342Z,2.97
2023-04-12T04:32:53.776Z,3.30
2023-04-12T04:38:01.767Z,3.85
2023-04-12T04:43:07.776Z,4.45
2023-04-12T04:48:16.476Z,3.67
2023-04-12T04:53:24.281Z,3.70
2023-04-12T04:58:28.924Z,1.67
2023-04-12T05:03:41.037Z,2.72
2023-04-12T05:08:46.113Z,1.52
2023-04-12T05:13:52.917Z,1.75
2023-04-12T05:18:58.464Z,1.67
2023-04-12T05:24:02.874Z,1.88
2023-04-12T05:29:09.572Z,1.13
2023-04-12T05:34:14.853Z,1.23
2023-04-12T05:39:28.141Z,2.47
2023-04-12T05:44:32.696Z,0.75
2023-04-12T05:49:37.972Z,1.25
2023-04-12T05:54:45.915Z,1.25
2023-04-12T05:59:54.964Z,1.10
2023-04-12T06:10:31.734Z,0.30
2023-04-12T06:15:36.378Z,0.10
2023-04-12T06:26:10.459Z,0.50
2023-04-12T06:31:16.551Z,0.38
2023-04-12T06:36:22.180Z,0.68
2023-04-12T06:41:26.598Z,0.38
2023-04-12T06:46:39.213Z,1.05
2023-04-12T06:51:45.269Z,0.10
2023-04-12T06:56:49.146Z,0.63
2023-04-12T07:01:53.039Z,0.50
2023-04-12T07:06:58.389Z,0.15
2023-04-12T07:12:02.973Z,0.77
2023-04-12T07:17:07.306Z,0.60
2023-04-12T07:22:13.805Z,0.63
2023-04-12T07:27:18.439Z,0.60
2023-04-12T07:32:23.243Z,0.73
2023-04-12T07:42:56.846Z,0.57
2023-04-12T07:48:00.809Z,0.20
2023-04-12T07:53:22.106Z,0.90
2023-04-12T07:58:26.697Z,0.20
2023-04-12T08:03:30.776Z,0.70
2023-04-12T08:08:36.376Z,0.57
2023-04-12T08:13:40.235Z,0.43
2023-04-12T08:18:45.933Z,0.40
2023-04-12T08:23:51.852Z,0.60
2023-04-12T08:28:55.800Z,0.30
2023-04-12T08:34:00.217Z,0.73
2023-04-12T08:39:05.885Z,0.45
2023-04-12T08:44:12.458Z,0.57
2023-04-12T08:49:17.342Z,0.50
2023-04-12T08:54:22.654Z,0.20
2023-04-12T08:59:28.374Z,0.25
2023-04-12T09:04:32.423Z,0.77
2023-04-12T09:09:43.737Z,0.43
2023-04-12T09:14:47.681Z,0.20
2023-04-12T09:19:52.244Z,0.10
2023-04-12T09:24:57.540Z,0.73
2023-04-12T09:30:09.262Z,0.50
2023-04-12T09:35:13.274Z,0.68
2023-04-12T09:40:25.470Z,0.63
2023-04-12T09:45:30.227Z,0.73
2023-04-12T09:50:34.615Z,0.63
2023-04-12T09:55:41.528Z,1.10
2023-04-12T10:00:47.157Z,0.60
2023-04-12T10:05:51.141Z,0.40
2023-04-12T10:10:57.245Z,0.93
2023-04-12T10:16:01.855Z,0.88
2023-04-12T10:21:07.189Z,0.20
2023-04-12T10:26:16.323Z,1.15
2023-04-12T10:31:31.022Z,0.85
2023-04-12T10:37:00.154Z,0.68
2023-04-12T10:42:27.496Z,0.20
2023-04-12T10:48:01.979Z,1.05
2023-04-12T10:53:28.644Z,0.47
2023-04-12T11:04:15.591Z,0.22
2023-04-12T11:09:44.653Z,0.10
2023-04-12T11:15:02.026Z,0.50
2023-04-12T11:20:34.372Z,0.63
2023-04-12T11:25:40.448Z,0.28
2023-04-12T11:30:54.371Z,0.10
2023-04-12T11:35:59.726Z,0.15
2023-04-12T11:41:03.933Z,0.20
2023-04-12T11:46:08.187Z,0.40
2023-04-12T11:51:26.415Z,0.50
2023-04-12T11:56:31.927Z,0.65
2023-04-12T12:01:39.506Z,0.30
2023-04-12T12:06:45.819Z,0.77
2023-04-12T12:11:50.426Z,1.67
2023-04-12T12:16:57.001Z,1.02
2023-04-12T12:22:17.291Z,1.13
2023-04-12T12:27:23.048Z,0.47
2023-04-12T12:32:27.367Z,0.15
2023-04-12T12:37:32.788Z,2.85
2023-04-12T12:42:36.794Z,1.38
2023-04-12T12:47:52.302Z,1.40
2023-04-12T12:53:01.546Z,0.63
2023-04-12T13:02:35.344Z,0.20
2023-04-12T13:07:40.778Z,0.70
2023-04-12T13:12:44.811Z,1.17
2023-04-12T13:17:50.128Z,0.52
2023-04-12T13:22:54.084Z,0.30
2023-04-12T13:27:58.228Z,0.20
2023-04-12T13:33:03.991Z,0.40
2023-04-12T13:38:07.989Z,0.13
2023-04-12T13:48:41.877Z,0.20
2023-04-12T13:53:45.890Z,0.60
2023-04-12T13:58:49.973Z,0.40
2023-04-12T14:03:55.879Z,0.30
2023-04-12T14:09:00.218Z,0.30
2023-04-12T14:14:05.008Z,0.65
2023-04-12T14:19:10.584Z,0.50
2023-04-12T14:24:15.725Z,0.30
2023-04-12T14:29:22.758Z,0.30
2023-04-12T14:34:28.084Z,0.65
2023-04-12T14:39:32.375Z,0.30
2023-04-12T14:44:36.352Z,0.25
2023-04-12T14:49:41.683Z,0.20
2023-04-12T14:54:45.688Z,0.30
2023-04-12T14:59:49.777Z,0.52
2023-04-12T15:04:55.412Z,0.50
2023-04-12T15:09:59.908Z,0.30
2023-04-12T15:15:06.218Z,0.20
2023-04-12T15:20:15.825Z,0.47
2023-04-12T15:25:21.818Z,0.82
2023-04-12T15:35:57.728Z,0.40
2023-04-12T15:41:06.850Z,0.95
2023-04-12T15:46:11.012Z,0.35
2023-04-12T15:51:16.619Z,0.60
2023-04-12T15:56:24.431Z,0.43
2023-04-12T16:01:28.683Z,0.35
2023-04-12T16:06:36.913Z,0.52
2023-04-12T16:11:44.884Z,0.30
2023-04-12T16:16:48.915Z,0.50
2023-04-12T16:21:55.006Z,0.30
2023-04-12T16:26:59.482Z,0.88
2023-04-12T16:32:03.416Z,0.57
2023-04-12T16:37:09.945Z,0.28
2023-04-12T16:42:13.830Z,1.05
2023-04-12T16:47:17.794Z,1.05
2023-04-12T16:52:23.485Z,0.75
2023-04-12T16:57:28.208Z,0.57
2023-04-12T17:02:32.898Z,0.90
2023-04-12T17:07:38.370Z,0.50
2023-04-12T17:12:42.299Z,1.08
2023-04-12T17:17:47.873Z,0.75
2023-04-12T17:22:53.331Z,0.82
2023-04-12T17:27:57.285Z,0.88
2023-04-12T17:33:01.742Z,1.77
2023-04-12T17:38:08.957Z,1.20
2023-04-12T17:43:12.904Z,1.02
2023-04-12T17:48:16.840Z,0.20
2023-04-12T17:53:22.350Z,1.30
2023-04-12T17:58:27.382Z,0.70
2023-04-12T18:03:31.845Z,1.27
2023-04-12T18:08:40.068Z,1.00
2023-04-12T18:13:44.016Z,0.95
2023-04-12T18:18:48.387Z,0.28
2023-04-12T18:23:53.735Z,1.20
2023-04-12T18:28:57.930Z,0.80
2023-04-12T18:34:02.108Z,1.17
2023-04-12T18:39:09.163Z,0.60
2023-04-12T18:44:13.367Z,0.80
2023-04-12T18:49:17.368Z,0.90
2023-04-12T18:54:22.641Z,0.70
2023-04-12T18:59:26.787Z,0.38
2023-04-12T19:04:30.744Z,0.40
2023-04-12T19:09:36.221Z,1.98
2023-04-12T19:14:42.391Z,1.00
2023-04-12T19:19:46.273Z,0.68
2023-04-12T19:24:52.460Z,1.70
2023-04-12T19:29:57.739Z,0.90
2023-04-12T19:35:02.913Z,1.40
2023-04-12T19:40:11.954Z,1.02
2023-04-12T19:45:15.992Z,0.30
2023-04-12T19:50:23.108Z,1.17
2023-04-12T19:55:28.781Z,1.15
2023-04-12T20:00:32.677Z,0.90
2023-04-12T20:05:36.781Z,0.88
2023-04-12T20:10:42.147Z,0.73
2023-04-12T20:21:14.665Z,0.75
2023-04-12T20:26:23.284Z,0.82
2023-04-12T20:31:29.249Z,0.75
2023-04-12T20:36:33.263Z,0.40
2023-04-12T20:47:09.170Z,0.70
2023-04-12T20:52:16.966Z,1.00
2023-04-12T20:57:22.277Z,0.63
2023-04-12T21:02:26.335Z,0.50
2023-04-12T21:07:31.112Z,0.82
2023-04-12T21:12:36.472Z,0.45
2023-04-12T21:17:41.009Z,0.32
2023-04-12T21:22:47.834Z,1.05
2023-04-12T21:27:53.454Z,0.98
2023-04-12T21:38:25.757Z,1.95
2023-04-12T21:43:31.118Z,3.28
2023-04-12T21:48:35.011Z,1.27
2023-04-12T21:53:38.887Z,1.80
2023-04-12T21:58:44.144Z,1.50
2023-04-12T22:03:49.451Z,1.38
2023-04-12T22:08:53.848Z,1.35
2023-04-12T22:13:59.373Z,0.32
2023-04-12T22:19:03.591Z,0.70
2023-04-12T22:24:08.380Z,0.70
2023-04-12T22:34:42.237Z,0.32
2023-04-12T22:39:46.722Z,0.50
2023-04-12T22:44:54.998Z,0.50
2023-04-12T22:50:01.696Z,0.30
2023-04-12T22:55:06.752Z,0.50
2023-04-12T23:00:16.929Z,0.65
2023-04-12T23:05:21.297Z,0.75
2023-04-12T23:10:25.548Z,0.55
2023-04-12T23:15:31.745Z,0.82
2023-04-12T23:20:36.149Z,0.20
2023-04-12T23:25:40.902Z,0.40
2023-04-12T23:30:48.937Z,0.75
2023-04-12T23:35:53.511Z,0.45
2023-04-12T23:40:57.514Z,0.32
2023-04-12T23:46:03.513Z,0.85
2023-04-12T23:51:08.421Z,1.00
2023-04-12T23:56:12.392Z,0.75
